Terminal Aerodrome Forecast
Issued by NWS

Home | Current Version | Previous Version | Text Only | Print | Product List | Glossary Off
Versions: 1 2 3 4 5 6 7 8 9 10 11 12 13 14 15 16

963
FTUS42 KMHX 160521
TAFISO
TAF
KISO 160521Z 1606/1706 21004KT P6SM FEW250
     FM160800 22003KT 2SM BR FEW005 SCT009
     FM161200 28008KT P6SM VCSH BKN090
     FM161700 01010G18KT 6SM -SHRA OVC025
     FM162200 01008KT P6SM BKN040
     FM170200 01006KT P6SM FEW250
      AMD LTD TO CLD VIS AND WIND=

USA.gov is the U.S. government's official web portal to all federal, state and local government web resources and services.